Time;durP1;ratioP1;P1;durP2;ratioP2;P2;SDS_P1;SDS_P2;PMS_P1;PMS_P2;Temp;Humidity;BMP_temperature;BMP_pressure;BME280_temperature;BME280_humidity;BME280_pressure;Samples;Min_cycle;Max_cycle;Signal;HPM_P1;HPM_P2
2023/04/18 00:01:22;;;;;;;3.80;1.70;;;;;;;;;;10470241;28;20037;-72
2023/04/18 00:06:24;;;;;;;4.63;1.70;;;;;;;;;;10451930;28;20021;-75
2023/04/18 00:11:25;;;;;;;2.35;1.70;;;;;;;;;;10446816;28;20477;-75
2023/04/18 00:16:27;;;;;;;2.38;1.80;;;;;;;;;;10452150;28;20033;-74
2023/04/18 00:21:28;;;;;;;2.35;1.83;;;;;;;;;;10450557;28;20041;-76
2023/04/18 00:26:29;;;;;;;3.70;2.05;;;;;;;;;;10447437;28;20059;-74
2023/04/18 00:31:30;;;;;;;1.70;1.60;;;;;;;;;;10450558;28;20095;-76
2023/04/18 00:36:31;;;;;;;2.72;1.90;;;;;;;;;;10452249;28;20032;-71
2023/04/18 00:41:31;;;;;;;1.88;1.55;;;;;;;;;;10463589;28;20035;-76
2023/04/18 00:46:32;;;;;;;1.95;1.77;;;;;;;;;;10447273;28;20424;-70
2023/04/18 00:51:34;;;;;;;3.35;1.98;;;;;;;;;;10454341;28;20530;-75
2023/04/18 00:56:35;;;;;;;11.18;1.75;;;;;;;;;;10460068;28;20453;-57
2023/04/18 01:01:36;;;;;;;1.95;1.83;;;;;;;;;;10465129;28;20049;-58
2023/04/18 01:06:36;;;;;;;3.38;1.92;;;;;;;;;;10450502;28;20485;-58
2023/04/18 01:11:37;;;;;;;4.22;1.70;;;;;;;;;;10449885;28;20029;-56
2023/04/18 01:16:38;;;;;;;3.88;1.70;;;;;;;;;;10453887;28;20033;-57
2023/04/18 01:21:42;;;;;;;1.70;1.60;;;;;;;;;;10457407;28;20386;-56
2023/04/18 01:26:48;;;;;;;2.30;1.88;;;;;;;;;;10427756;28;20753;-59
2023/04/18 01:31:48;;;;;;;2.22;1.85;;;;;;;;;;10473127;28;20029;-59
2023/04/18 01:36:49;;;;;;;3.15;1.90;;;;;;;;;;10458519;28;20484;-58
2023/04/18 01:41:50;;;;;;;1.85;1.50;;;;;;;;;;10447728;28;20036;-59
2023/04/18 01:46:50;;;;;;;1.95;1.67;;;;;;;;;;10460456;28;20102;-58
2023/04/18 01:51:51;;;;;;;2.65;2.05;;;;;;;;;;10436704;28;20026;-58
2023/04/18 01:56:51;;;;;;;1.58;1.40;;;;;;;;;;10437670;28;20034;-59
2023/04/18 02:01:52;;;;;;;2.05;1.60;;;;;;;;;;10468168;28;20049;-78
2023/04/18 02:06:52;;;;;;;2.88;1.92;;;;;;;;;;10473019;28;20028;-75
2023/04/18 02:11:58;;;;;;;1.90;1.30;;;;;;;;;;10444480;28;20025;-76
2023/04/18 02:16:59;;;;;;;2.95;1.70;;;;;;;;;;10459807;28;20020;-72
2023/04/18 02:21:59;;;;;;;3.58;1.60;;;;;;;;;;10455178;28;20033;-74
2023/04/18 02:27:00;;;;;;;1.52;1.42;;;;;;;;;;10449564;28;20686;-71
2023/04/18 02:32:02;;;;;;;1.83;1.70;;;;;;;;;;10449959;28;20516;-70
2023/04/18 02:37:03;;;;;;;2.85;1.70;;;;;;;;;;10449700;28;20044;-72
2023/04/18 02:42:04;;;;;;;2.33;1.70;;;;;;;;;;10450731;28;20115;-74
2023/04/18 02:47:04;;;;;;;1.67;1.55;;;;;;;;;;10449732;28;20475;-73
2023/04/18 02:52:05;;;;;;;1.50;1.40;;;;;;;;;;10448577;28;20527;-73
2023/04/18 02:57:06;;;;;;;2.25;1.50;;;;;;;;;;10447622;28;20025;-58
2023/04/18 03:02:06;;;;;;;2.17;1.70;;;;;;;;;;10438369;28;20053;-59
2023/04/18 03:07:07;;;;;;;1.80;1.42;;;;;;;;;;10437639;28;20143;-58
2023/04/18 03:12:08;;;;;;;1.70;1.50;;;;;;;;;;10432928;28;20021;-59
2023/04/18 03:17:08;;;;;;;2.13;1.60;;;;;;;;;;10451419;28;20020;-58
2023/04/18 03:22:09;;;;;;;4.20;1.58;;;;;;;;;;10450677;28;20079;-59
2023/04/18 03:27:11;;;;;;;2.80;1.30;;;;;;;;;;10457380;28;20476;-59
2023/04/18 03:32:11;;;;;;;4.35;1.70;;;;;;;;;;10458253;28;20380;-59
2023/04/18 03:37:12;;;;;;;1.60;1.50;;;;;;;;;;10432942;28;20032;-59
2023/04/18 03:42:12;;;;;;;5.93;1.52;;;;;;;;;;10443049;28;20025;-59
2023/04/18 03:47:16;;;;;;;1.80;1.35;;;;;;;;;;10458922;28;20025;-59
2023/04/18 03:52:16;;;;;;;1.98;1.40;;;;;;;;;;10444450;28;20033;-59
2023/04/18 03:57:17;;;;;;;1.60;1.50;;;;;;;;;;10442282;28;20025;-59
2023/04/18 04:02:17;;;;;;;1.65;1.38;;;;;;;;;;10445794;28;20057;-74
2023/04/18 04:07:18;;;;;;;1.60;1.50;;;;;;;;;;10456772;28;20032;-81
2023/04/18 04:12:18;;;;;;;1.45;1.23;;;;;;;;;;10451965;28;20036;-78
2023/04/18 04:17:19;;;;;;;1.30;1.20;;;;;;;;;;10449490;28;20028;-82
2023/04/18 04:22:20;;;;;;;1.73;1.42;;;;;;;;;;10449991;28;20082;-76
2023/04/18 04:27:26;;;;;;;1.60;1.50;;;;;;;;;;10450794;28;20108;-82
2023/04/18 04:32:27;;;;;;;2.03;1.30;;;;;;;;;;10448034;28;20036;-74
2023/04/18 04:37:28;;;;;;;2.50;1.40;;;;;;;;;;10458029;28;20044;-80
2023/04/18 04:42:28;;;;;;;1.63;1.52;;;;;;;;;;10462529;28;20390;-76
2023/04/18 04:47:29;;;;;;;1.50;1.40;;;;;;;;;;10453717;28;20510;-78
2023/04/18 04:52:31;;;;;;;2.03;1.40;;;;;;;;;;10437667;28;20029;-77
2023/04/18 04:57:32;;;;;;;1.60;1.40;;;;;;;;;;10459589;28;20373;-59
2023/04/18 05:02:32;;;;;;;2.30;1.33;;;;;;;;;;10447695;28;20044;-74
2023/04/18 05:07:33;;;;;;;2.03;1.30;;;;;;;;;;10446275;28;20036;-62
2023/04/18 05:12:33;;;;;;;5.20;1.50;;;;;;;;;;10467472;28;20028;-61
2023/04/18 05:17:34;;;;;;;4.40;1.77;;;;;;;;;;10437218;28;20021;-58
2023/04/18 05:22:34;;;;;;;4.72;1.85;;;;;;;;;;10440397;28;20037;-58
2023/04/18 05:27:35;;;;;;;4.32;1.88;;;;;;;;;;10454689;28;20104;-59
2023/04/18 05:32:37;;;;;;;3.85;1.98;;;;;;;;;;10450629;28;20483;-59
2023/04/18 05:37:38;;;;;;;2.80;1.85;;;;;;;;;;10434983;28;20143;-60
2023/04/18 05:42:38;;;;;;;5.22;1.70;;;;;;;;;;10435482;28;20119;-59
2023/04/18 05:47:39;;;;;;;21.90;2.75;;;;;;;;;;10443362;28;20040;-59
2023/04/18 05:52:40;;;;;;;14.63;2.50;;;;;;;;;;10443473;28;20083;-59
2023/04/18 05:57:40;;;;;;;8.60;2.40;;;;;;;;;;10450649;28;20037;-60
2023/04/18 06:02:41;;;;;;;7.88;2.20;;;;;;;;;;10458225;28;20057;-59
2023/04/18 06:07:41;;;;;;;5.32;1.92;;;;;;;;;;10460543;28;20028;-58
2023/04/18 06:12:42;;;;;;;16.98;2.03;;;;;;;;;;10428922;28;20525;-60
2023/04/18 06:17:43;;;;;;;18.50;2.78;;;;;;;;;;10446227;28;20090;-64
2023/04/18 06:22:44;;;;;;;13.05;2.58;;;;;;;;;;10437118;28;20028;-66
2023/04/18 06:27:44;;;;;;;7.95;2.10;;;;;;;;;;10451258;28;20040;-59
2023/04/18 06:32:45;;;;;;;6.47;2.45;;;;;;;;;;10447393;28;20033;-59
2023/04/18 06:37:45;;;;;;;7.80;1.83;;;;;;;;;;10450044;28;20028;-59
2023/04/18 06:42:46;;;;;;;9.75;2.22;;;;;;;;;;10448871;28;20438;-59
2023/04/18 06:47:47;;;;;;;9.00;2.03;;;;;;;;;;10447979;28;20049;-59
2023/04/18 06:52:48;;;;;;;7.47;2.33;;;;;;;;;;10447096;28;20029;-60
2023/04/18 06:57:48;;;;;;;5.30;1.92;;;;;;;;;;10444620;28;20106;-59
2023/04/18 07:02:49;;;;;;;10.38;1.83;;;;;;;;;;10454253;28;20075;-59
2023/04/18 07:07:50;;;;;;;8.52;1.90;;;;;;;;;;10432512;28;20032;-61
2023/04/18 07:12:51;;;;;;;7.45;2.40;;;;;;;;;;10445326;28;20248;-59
2023/04/18 07:17:51;;;;;;;8.48;2.20;;;;;;;;;;10443440;28;20467;-58
2023/04/18 07:22:52;;;;;;;6.43;2.38;;;;;;;;;;10441563;28;20029;-64
2023/04/18 07:27:52;;;;;;;5.35;2.15;;;;;;;;;;10444644;28;20025;-59
2023/04/18 07:32:53;;;;;;;2.03;1.70;;;;;;;;;;10457051;28;20076;-60
2023/04/18 07:37:54;;;;;;;4.15;1.85;;;;;;;;;;10468442;28;20025;-59
2023/04/18 07:42:55;;;;;;;6.60;2.45;;;;;;;;;;10456582;28;20264;-58
2023/04/18 07:47:56;;;;;;;3.17;1.80;;;;;;;;;;10452751;28;20195;-67
2023/04/18 07:52:56;;;;;;;5.90;1.88;;;;;;;;;;10455112;28;20469;-59
2023/04/18 07:57:57;;;;;;;1.60;1.40;;;;;;;;;;10464610;28;20048;-59
2023/04/18 08:02:57;;;;;;;7.05;1.98;;;;;;;;;;10449827;28;20036;-59
2023/04/18 08:07:58;;;;;;;6.15;2.00;;;;;;;;;;10451067;28;20385;-60
2023/04/18 08:12:59;;;;;;;3.25;2.00;;;;;;;;;;10467331;28;20029;-59
2023/04/18 08:18:00;;;;;;;2.65;1.70;;;;;;;;;;10462129;28;20029;-58
2023/04/18 08:23:01;;;;;;;3.28;2.17;;;;;;;;;;10460852;28;20029;-58
2023/04/18 08:28:02;;;;;;;4.15;1.67;;;;;;;;;;10464045;28;20392;-59
2023/04/18 08:33:03;;;;;;;4.45;1.77;;;;;;;;;;10441388;28;20488;-59
2023/04/18 08:38:03;;;;;;;2.33;1.70;;;;;;;;;;10464049;28;20078;-59
2023/04/18 08:43:11;;;;;;;3.88;1.75;;;;;;;;;;10476990;28;20043;-59
2023/04/18 08:48:14;;;;;;;6.03;1.70;;;;;;;;;;10463830;28;20076;-59
2023/04/18 08:53:16;;;;;;;3.00;1.70;;;;;;;;;;10462761;28;20484;-59
2023/04/18 08:58:23;;;;;;;2.38;1.55;;;;;;;;;;10449314;28;20044;-60
2023/04/18 09:03:41;;;;;;;1.88;1.50;;;;;;;;;;10463865;28;20049;-65
2023/04/18 09:08:43;;;;;;;;;;;;;;;;;;10453108;28;20037;-62
2023/04/18 09:13:45;;;;;;;4.28;1.65;;;;;;;;;;10457683;28;19953;-58
2023/04/18 09:19:17;;;;;;;1.90;1.73;;;;;;;;;;10474131;28;20059;-59
2023/04/18 09:24:21;;;;;;;2.83;1.77;;;;;;;;;;10445562;28;20064;-58
2023/04/18 09:29:42;;;;;;;2.08;1.45;;;;;;;;;;10434839;28;20028;-59
2023/04/18 09:34:42;;;;;;;2.22;1.60;;;;;;;;;;10451850;28;20040;-59
2023/04/18 09:39:44;;;;;;;3.95;1.80;;;;;;;;;;10449066;28;20025;-59
2023/04/18 09:45:02;;;;;;;2.83;1.42;;;;;;;;;;10457571;28;20487;-59
2023/04/18 09:50:06;;;;;;;3.30;1.83;;;;;;;;;;10449738;28;20033;-59
2023/04/18 09:55:10;;;;;;;1.88;1.60;;;;;;;;;;10461788;28;20473;-59
2023/04/18 10:00:23;;;;;;;1.63;1.48;;;;;;;;;;10442785;28;20041;-62
2023/04/18 10:05:32;;;;;;;4.03;1.92;;;;;;;;;;10445893;28;20083;-61
2023/04/18 10:10:32;;;;;;;8.43;1.80;;;;;;;;;;10445978;28;20032;-59
2023/04/18 10:15:33;;;;;;;4.63;1.67;;;;;;;;;;10465661;28;20032;-61
2023/04/18 10:20:34;;;;;;;2.25;1.30;;;;;;;;;;10451142;28;20476;-59
2023/04/18 10:25:38;;;;;;;2.35;1.50;;;;;;;;;;10442555;28;20027;-60
2023/04/18 10:30:41;;;;;;;3.85;1.73;;;;;;;;;;10441229;28;20099;-59
2023/04/18 10:36:16;;;;;;;1.85;1.42;;;;;;;;;;10448542;28;20028;-59
2023/04/18 10:41:28;;;;;;;2.00;1.55;;;;;;;;;;10456094;28;20043;-59
2023/04/18 10:46:28;;;;;;;2.60;1.52;;;;;;;;;;10438548;28;20266;-60
2023/04/18 10:51:29;;;;;;;1.80;1.50;;;;;;;;;;10432514;28;20294;-64
2023/04/18 10:56:30;;;;;;;1.83;1.33;;;;;;;;;;10441227;28;20024;-59
2023/04/18 11:01:34;;;;;;;2.83;1.52;;;;;;;;;;10437477;28;20041;-59
2023/04/18 11:06:49;;;;;;;1.60;1.50;;;;;;;;;;10432461;28;20021;-59
2023/04/18 11:12:10;;;;;;;1.83;1.48;;;;;;;;;;10434790;28;20435;-60
2023/04/18 11:17:26;;;;;;;1.80;1.30;;;;;;;;;;10430326;28;20025;-58
2023/04/18 11:22:27;;;;;;;1.30;1.20;;;;;;;;;;10453765;28;20029;-59
2023/04/18 11:27:28;;;;;;;3.75;1.30;;;;;;;;;;10448778;28;20025;-61
2023/04/18 11:32:29;;;;;;;3.20;1.70;;;;;;;;;;10428162;28;20175;-59
2023/04/18 11:37:31;;;;;;;4.15;1.58;;;;;;;;;;10461680;28;20148;-58
2023/04/18 11:42:33;;;;;;;1.83;1.48;;;;;;;;;;10455791;28;20033;-58
2023/04/18 11:47:34;;;;;;;2.00;1.40;;;;;;;;;;10440502;28;20017;-65
2023/04/18 11:52:36;;;;;;;1.98;1.30;;;;;;;;;;10439827;28;20021;-58
2023/04/18 11:57:36;;;;;;;2.40;1.50;;;;;;;;;;10449504;28;20473;-57
2023/04/18 12:02:41;;;;;;;1.88;1.45;;;;;;;;;;10462579;28;20049;-58
2023/04/18 12:07:44;;;;;;;1.50;1.40;;;;;;;;;;10431833;28;20040;-57
2023/04/18 12:12:51;;;;;;;2.08;1.40;;;;;;;;;;10464197;28;20021;-58
2023/04/18 12:17:55;;;;;;;1.65;1.52;;;;;;;;;;10447721;28;20040;-58
2023/04/18 12:22:56;;;;;;;1.55;1.45;;;;;;;;;;10431348;28;20040;-58
2023/04/18 12:28:03;;;;;;;2.08;1.38;;;;;;;;;;10438348;28;20025;-58
2023/04/18 12:33:04;;;;;;;1.40;1.30;;;;;;;;;;10435753;28;20025;-56
2023/04/18 12:38:04;;;;;;;1.45;1.33;;;;;;;;;;10430901;28;20087;-58
2023/04/18 12:43:06;;;;;;;2.20;1.52;;;;;;;;;;10447743;28;20033;-58
2023/04/18 12:48:06;;;;;;;2.83;1.52;;;;;;;;;;10448044;28;20373;-58
2023/04/18 12:53:07;;;;;;;6.20;1.73;;;;;;;;;;10431376;28;20037;-58
2023/04/18 12:58:07;;;;;;;1.60;1.33;;;;;;;;;;10453833;28;20481;-57
2023/04/18 13:03:08;;;;;;;2.03;1.60;;;;;;;;;;10451005;28;20075;-58
2023/04/18 13:08:09;;;;;;;2.08;1.50;;;;;;;;;;10449477;28;20029;-58
2023/04/18 13:13:10;;;;;;;2.55;1.52;;;;;;;;;;10440733;28;20090;-57
2023/04/18 13:18:10;;;;;;;5.28;1.50;;;;;;;;;;10462106;28;20094;-57
2023/04/18 13:23:11;;;;;;;1.50;1.40;;;;;;;;;;10461714;28;20935;-59
2023/04/18 13:28:12;;;;;;;6.03;1.52;;;;;;;;;;10466859;28;20031;-59
2023/04/18 13:33:12;;;;;;;3.35;1.67;;;;;;;;;;10438960;28;20029;-57
2023/04/18 13:38:13;;;;;;;8.43;1.70;;;;;;;;;;10452480;28;20029;-59
2023/04/18 13:43:14;;;;;;;5.32;1.75;;;;;;;;;;10448347;28;20021;-62
2023/04/18 13:48:15;;;;;;;3.42;1.77;;;;;;;;;;10455928;28;20025;-58
2023/04/18 13:53:17;;;;;;;2.42;1.95;;;;;;;;;;10449739;28;20041;-62
2023/04/18 13:58:17;;;;;;;2.08;1.60;;;;;;;;;;10444283;28;20108;-58
2023/04/18 14:03:19;;;;;;;2.50;1.70;;;;;;;;;;10446379;28;20508;-57
2023/04/18 14:08:19;;;;;;;2.15;1.60;;;;;;;;;;10458173;28;20092;-57
2023/04/18 14:13:20;;;;;;;2.42;1.65;;;;;;;;;;10448153;28;20144;-57
2023/04/18 14:18:22;;;;;;;6.03;1.90;;;;;;;;;;10449965;28;20436;-57
2023/04/18 14:23:22;;;;;;;2.65;1.65;;;;;;;;;;10451335;28;20024;-57
2023/04/18 14:28:23;;;;;;;2.33;1.52;;;;;;;;;;10451616;28;20227;-57
2023/04/18 14:33:25;;;;;;;2.65;1.70;;;;;;;;;;10451666;28;20037;-57
2023/04/18 14:38:25;;;;;;;7.43;1.67;;;;;;;;;;10446253;28;20029;-56
2023/04/18 14:43:26;;;;;;;2.63;1.92;;;;;;;;;;10448162;28;20119;-57
2023/04/18 14:48:27;;;;;;;3.08;1.77;;;;;;;;;;10439234;28;20124;-57
2023/04/18 14:53:27;;;;;;;2.03;1.60;;;;;;;;;;10444155;28;20029;-58
2023/04/18 14:58:28;;;;;;;2.20;1.70;;;;;;;;;;10450568;28;20024;-61
2023/04/18 15:03:29;;;;;;;5.18;2.08;;;;;;;;;;10445171;28;20082;-58
2023/04/18 15:08:31;;;;;;;2.70;1.65;;;;;;;;;;10444646;28;20051;-58
2023/04/18 15:13:32;;;;;;;3.85;1.70;;;;;;;;;;10439914;28;20034;-58
2023/04/18 15:18:33;;;;;;;2.03;1.80;;;;;;;;;;10438277;28;20033;-58
2023/04/18 15:23:33;;;;;;;3.00;1.50;;;;;;;;;;10446164;28;20083;-57
2023/04/18 15:28:34;;;;;;;2.60;1.60;;;;;;;;;;10446476;28;20122;-58
2023/04/18 15:33:35;;;;;;;2.72;1.70;;;;;;;;;;10443849;28;20025;-58
2023/04/18 15:38:35;;;;;;;1.63;1.40;;;;;;;;;;10452070;28;20109;-58
2023/04/18 15:43:36;;;;;;;2.20;1.45;;;;;;;;;;10455147;28;20045;-58
2023/04/18 15:48:36;;;;;;;3.25;1.80;;;;;;;;;;10459579;28;20028;-56
2023/04/18 15:53:37;;;;;;;2.30;1.50;;;;;;;;;;10441815;28;20029;-58
2023/04/18 15:58:38;;;;;;;2.20;1.52;;;;;;;;;;10443510;28;20032;-56
2023/04/18 16:03:38;;;;;;;1.70;1.60;;;;;;;;;;10430574;28;20052;-56
2023/04/18 16:08:39;;;;;;;2.25;1.50;;;;;;;;;;10451125;28;20037;-58
2023/04/18 16:13:40;;;;;;;2.97;1.60;;;;;;;;;;10455870;28;20033;-58
2023/04/18 16:18:40;;;;;;;2.65;1.95;;;;;;;;;;10444243;28;20083;-58
2023/04/18 16:23:42;;;;;;;2.53;1.52;;;;;;;;;;10474605;28;21016;-58
2023/04/18 16:28:42;;;;;;;4.97;1.40;;;;;;;;;;10456783;28;20384;-58
2023/04/18 16:33:44;;;;;;;1.65;1.15;;;;;;;;;;10463930;28;20025;-56
2023/04/18 16:38:44;;;;;;;3.38;1.50;;;;;;;;;;10456246;28;20107;-59
2023/04/18 16:43:45;;;;;;;5.18;1.58;;;;;;;;;;10464848;28;20033;-58
2023/04/18 16:48:46;;;;;;;1.73;1.50;;;;;;;;;;10458984;28;20396;-60
2023/04/18 16:53:46;;;;;;;1.88;1.60;;;;;;;;;;10455807;28;20032;-56
2023/04/18 16:58:47;;;;;;;5.47;1.98;;;;;;;;;;10452859;28;20047;-58
2023/04/18 17:03:47;;;;;;;3.88;1.73;;;;;;;;;;10450183;28;20049;-58
2023/04/18 17:08:48;;;;;;;1.98;1.83;;;;;;;;;;10450517;28;20032;-56
2023/04/18 17:13:50;;;;;;;4.78;2.15;;;;;;;;;;10453114;28;20247;-52
2023/04/18 17:18:50;;;;;;;3.80;1.75;;;;;;;;;;10443487;28;20104;-54
2023/04/18 17:23:52;;;;;;;2.00;1.80;;;;;;;;;;10439260;28;20037;-55
2023/04/18 17:28:52;;;;;;;3.25;1.60;;;;;;;;;;10456390;28;20491;-55
2023/04/18 17:33:53;;;;;;;1.65;1.48;;;;;;;;;;10447178;28;20025;-54
2023/04/18 17:38:55;;;;;;;5.15;2.00;;;;;;;;;;10453458;28;20372;-51
2023/04/18 17:43:56;;;;;;;4.20;2.00;;;;;;;;;;10455949;28;20033;-51
2023/04/18 17:48:57;;;;;;;6.18;1.90;;;;;;;;;;10451106;28;20037;-55
2023/04/18 17:53:58;;;;;;;2.17;1.83;;;;;;;;;;10463272;28;20024;-54
2023/04/18 17:58:58;;;;;;;5.05;1.83;;;;;;;;;;10436051;28;20028;-59
2023/04/18 18:03:59;;;;;;;2.53;1.92;;;;;;;;;;10450753;28;20041;-58
2023/04/18 18:08:59;;;;;;;16.15;2.70;;;;;;;;;;10451872;28;20032;-58
2023/04/18 18:14:00;;;;;;;12.68;2.40;;;;;;;;;;10435094;28;20456;-58
2023/04/18 18:19:01;;;;;;;4.15;2.17;;;;;;;;;;10422632;28;20029;-58
2023/04/18 18:24:02;;;;;;;8.98;2.22;;;;;;;;;;10439946;28;20045;-59
2023/04/18 18:29:11;;;;;;;17.15;1.90;;;;;;;;;;10437439;28;20029;-58
2023/04/18 18:34:12;;;;;;;3.50;1.80;;;;;;;;;;10431475;28;20030;-58
2023/04/18 18:39:14;;;;;;;6.22;2.17;;;;;;;;;;10440546;28;20037;-58
2023/04/18 18:44:15;;;;;;;4.38;1.80;;;;;;;;;;10441733;28;20041;-59
2023/04/18 18:49:16;;;;;;;5.28;2.00;;;;;;;;;;10442552;28;20368;-59
2023/04/18 18:54:16;;;;;;;6.65;1.70;;;;;;;;;;10436961;28;20052;-58
2023/04/18 18:59:17;;;;;;;7.25;2.30;;;;;;;;;;10440872;28;20033;-58
2023/04/18 19:04:17;;;;;;;8.82;1.67;;;;;;;;;;10443678;28;20511;-58
2023/04/18 19:09:18;;;;;;;8.48;1.80;;;;;;;;;;10453368;28;20025;-58
2023/04/18 19:14:19;;;;;;;8.45;1.90;;;;;;;;;;10438290;28;20046;-58
2023/04/18 19:19:19;;;;;;;5.55;1.83;;;;;;;;;;10441107;28;20032;-59
2023/04/18 19:24:20;;;;;;;3.17;1.70;;;;;;;;;;10450048;28;20051;-59
2023/04/18 19:29:21;;;;;;;5.32;1.77;;;;;;;;;;10440652;28;20021;-58
2023/04/18 19:34:22;;;;;;;3.83;1.83;;;;;;;;;;10442342;28;20036;-58
2023/04/18 19:39:22;;;;;;;2.15;1.67;;;;;;;;;;10448177;28;20028;-60
2023/04/18 19:44:23;;;;;;;5.22;1.80;;;;;;;;;;10450107;28;20040;-58
2023/04/18 19:49:23;;;;;;;6.07;1.75;;;;;;;;;;10459673;28;20479;-58
2023/04/18 19:54:24;;;;;;;4.15;2.05;;;;;;;;;;10456945;28;20037;-58
2023/04/18 19:59:25;;;;;;;2.88;1.70;;;;;;;;;;10454651;28;20033;-58
2023/04/18 20:04:25;;;;;;;5.28;1.60;;;;;;;;;;10456948;28;20049;-58
2023/04/18 20:09:26;;;;;;;4.28;1.95;;;;;;;;;;10435740;28;20025;-60
2023/04/18 20:14:27;;;;;;;2.63;1.73;;;;;;;;;;10445560;28;20072;-58
2023/04/18 20:19:28;;;;;;;3.97;1.80;;;;;;;;;;10441813;28;20033;-58
2023/04/18 20:24:30;;;;;;;1.85;1.67;;;;;;;;;;10450935;28;20401;-58
2023/04/18 20:29:31;;;;;;;3.10;1.70;;;;;;;;;;10460521;28;20086;-56
2023/04/18 20:34:31;;;;;;;3.65;1.58;;;;;;;;;;10462625;28;20029;-58
2023/04/18 20:39:32;;;;;;;9.90;2.08;;;;;;;;;;10454390;28;20072;-58
2023/04/18 20:44:33;;;;;;;3.95;1.90;;;;;;;;;;10449946;28;20037;-65
2023/04/18 20:49:34;;;;;;;5.00;1.75;;;;;;;;;;10460794;28;20051;-58
2023/04/18 20:54:34;;;;;;;4.93;1.88;;;;;;;;;;10462864;28;20040;-59
2023/04/18 20:59:35;;;;;;;3.72;1.65;;;;;;;;;;10445244;28;20148;-58
2023/04/18 21:04:36;;;;;;;4.07;2.10;;;;;;;;;;10443288;28;20489;-55
2023/04/18 21:09:36;;;;;;;3.45;1.40;;;;;;;;;;10436847;28;20500;-59
2023/04/18 21:14:38;;;;;;;3.53;1.85;;;;;;;;;;10458183;28;20432;-59
2023/04/18 21:19:39;;;;;;;2.33;1.70;;;;;;;;;;10441159;28;20033;-58
2023/04/18 21:24:39;;;;;;;2.70;1.80;;;;;;;;;;10451852;28;20032;-57
2023/04/18 21:29:40;;;;;;;2.75;1.67;;;;;;;;;;10452355;28;20033;-58
2023/04/18 21:34:41;;;;;;;1.83;1.70;;;;;;;;;;10458995;28;20404;-59
2023/04/18 21:39:41;;;;;;;2.65;1.55;;;;;;;;;;10448605;28;20032;-59
2023/04/18 21:44:42;;;;;;;5.85;1.98;;;;;;;;;;10456443;28;20502;-58
2023/04/18 21:49:42;;;;;;;4.00;1.80;;;;;;;;;;10455579;28;20481;-58
2023/04/18 21:54:43;;;;;;;4.07;2.22;;;;;;;;;;10454094;28;20036;-58
2023/04/18 21:59:44;;;;;;;11.10;2.15;;;;;;;;;;10450847;28;20079;-60
2023/04/18 22:04:44;;;;;;;13.93;3.53;;;;;;;;;;10443633;28;20542;-63
2023/04/18 22:09:45;;;;;;;16.83;3.83;;;;;;;;;;10423214;28;20503;-65
2023/04/18 22:14:47;;;;;;;11.45;3.40;;;;;;;;;;10445950;28;20029;-58
2023/04/18 22:19:49;;;;;;;13.25;3.70;;;;;;;;;;10446419;28;20033;-65
2023/04/18 22:24:49;;;;;;;15.60;3.40;;;;;;;;;;10454608;28;20088;-67
2023/04/18 22:29:50;;;;;;;9.10;3.55;;;;;;;;;;10442291;28;20036;-67
2023/04/18 22:34:50;;;;;;;11.05;4.00;;;;;;;;;;10444417;28;20037;-65
2023/04/18 22:39:51;;;;;;;12.13;3.97;;;;;;;;;;10445909;28;20040;-58
2023/04/18 22:44:52;;;;;;;12.38;3.60;;;;;;;;;;10456575;28;20036;-69
2023/04/18 22:49:52;;;;;;;12.02;3.95;;;;;;;;;;10448172;28;20033;-66
2023/04/18 22:54:53;;;;;;;11.15;4.00;;;;;;;;;;10436462;28;20052;-59
2023/04/18 22:59:54;;;;;;;8.55;3.70;;;;;;;;;;10450152;28;20033;-65
2023/04/18 23:04:57;;;;;;;9.80;4.03;;;;;;;;;;10466539;28;20079;-66
2023/04/18 23:09:58;;;;;;;12.27;4.00;;;;;;;;;;10454082;28;20034;-67
2023/04/18 23:14:58;;;;;;;14.15;4.20;;;;;;;;;;10453750;28;20417;-68
2023/04/18 23:20:00;;;;;;;10.82;3.92;;;;;;;;;;10434665;28;20400;-70
2023/04/18 23:25:00;;;;;;;10.65;3.78;;;;;;;;;;10452286;28;20071;-72
2023/04/18 23:30:01;;;;;;;10.18;3.50;;;;;;;;;;10439012;28;20048;-72
2023/04/18 23:35:03;;;;;;;13.05;3.72;;;;;;;;;;10444643;28;20055;-71
2023/04/18 23:40:05;;;;;;;8.73;3.30;;;;;;;;;;10441367;28;20041;-71
2023/04/18 23:45:06;;;;;;;8.30;3.50;;;;;;;;;;10440727;28;20060;-72
2023/04/18 23:50:08;;;;;;;14.15;3.47;;;;;;;;;;10433080;28;20471;-71
2023/04/18 23:55:09;;;;;;;12.05;3.60;;;;;;;;;;10439690;28;20492;-72
